createdAt,value
2023-04-15T00:00:06.814Z,93
2023-04-15T00:00:47.539Z,93
2023-04-15T00:01:20.066Z,93
2023-04-15T00:01:51.492Z,93
2023-04-15T00:02:23.910Z,93
2023-04-15T00:02:55.774Z,93
2023-04-15T00:03:27.815Z,93
2023-04-15T00:03:59.490Z,93
2023-04-15T00:04:15.751Z,93
2023-04-15T00:04:59.471Z,93
2023-04-15T00:05:31.568Z,93
2023-04-15T00:06:04.256Z,93
2023-04-15T00:06:35.238Z,93
2023-04-15T00:07:07.137Z,93
2023-04-15T00:07:39.306Z,93
2023-04-15T00:08:11.397Z,93
2023-04-15T00:08:43.069Z,93
2023-04-15T00:09:15.213Z,93
2023-04-15T00:09:47.177Z,93
2023-04-15T00:10:19.656Z,93
2023-04-15T00:10:51.253Z,93
2023-04-15T00:11:23.236Z,93
2023-04-15T00:11:54.982Z,93
2023-04-15T00:12:27.077Z,92
2023-04-15T00:12:59.235Z,93
2023-04-15T00:13:15.242Z,93
2023-04-15T00:13:46.913Z,92
2023-04-15T00:14:03.827Z,92
2023-04-15T00:14:35.115Z,92
2023-04-15T00:15:07.533Z,93
2023-04-15T00:15:23.147Z,93
2023-04-15T00:15:55.222Z,93
2023-04-15T00:16:39.082Z,93
2023-04-15T00:17:10.855Z,93
2023-04-15T00:17:42.855Z,93
2023-04-15T00:18:16.069Z,93
2023-04-15T00:18:46.927Z,93
2023-04-15T00:19:18.712Z,93
2023-04-15T00:19:50.803Z,93
2023-04-15T00:20:23.005Z,93
2023-04-15T00:20:54.949Z,93
2023-04-15T00:21:27.003Z,93
2023-04-15T00:21:58.658Z,93
2023-04-15T00:22:14.898Z,93
2023-04-15T00:22:58.537Z,93
2023-04-15T00:23:30.782Z,93
2023-04-15T00:24:02.919Z,93
2023-04-15T00:24:34.448Z,93
2023-04-15T00:25:06.595Z,93
2023-04-15T00:25:38.614Z,93
2023-04-15T00:26:10.452Z,93
2023-04-15T00:26:42.378Z,93
2023-04-15T00:27:14.485Z,93
2023-04-15T00:27:46.435Z,93
2023-04-15T00:28:18.254Z,93
2023-04-15T00:28:50.359Z,93
2023-04-15T00:29:22.348Z,93
2023-04-15T00:29:54.430Z,93
2023-04-15T00:30:26.752Z,93
2023-04-15T00:30:58.196Z,93
2023-04-15T00:31:30.357Z,93
2023-04-15T00:32:02.631Z,93
2023-04-15T00:32:34.374Z,93
2023-04-15T00:33:06.096Z,93
2023-04-15T00:33:38.209Z,93
2023-04-15T00:34:10.305Z,93
2023-04-15T00:34:42.246Z,93
2023-04-15T00:35:14.270Z,93
2023-04-15T00:35:46.011Z,93
2023-04-15T00:36:18.098Z,93
2023-04-15T00:36:50.043Z,93
2023-04-15T00:37:22.040Z,93
2023-04-15T00:37:54.117Z,93
2023-04-15T00:38:25.994Z,93
2023-04-15T00:38:58.173Z,93
2023-04-15T00:39:29.981Z,93
2023-04-15T00:40:02.384Z,93
2023-04-15T00:40:34.065Z,93
2023-04-15T00:41:05.921Z,93
2023-04-15T00:41:37.680Z,93
2023-04-15T00:42:09.955Z,93
2023-04-15T00:42:41.831Z,93
2023-04-15T00:43:13.862Z,93
2023-04-15T00:43:45.691Z,93
2023-04-15T00:44:01.783Z,93
2023-04-15T00:44:33.617Z,93
2023-04-15T00:45:18.919Z,93
2023-04-15T00:45:49.658Z,93
2023-04-15T00:46:21.879Z,93
2023-04-15T00:46:53.748Z,93
2023-04-15T00:47:25.694Z,93
2023-04-15T00:47:57.643Z,93
2023-04-15T00:48:29.604Z,93
2023-04-15T00:49:01.959Z,93
2023-04-15T00:49:33.585Z,93
2023-04-15T00:50:05.649Z,93
2023-04-15T00:50:37.348Z,93
2023-04-15T00:51:09.616Z,93
2023-04-15T00:51:41.582Z,93
2023-04-15T00:52:13.285Z,93
2023-04-15T00:52:29.566Z,93
2023-04-15T00:53:01.591Z,93
2023-04-15T00:53:45.365Z,93
2023-04-15T00:54:17.304Z,93
2023-04-15T00:54:49.192Z,93
2023-04-15T00:55:21.536Z,93
2023-04-15T00:55:53.251Z,93
2023-04-15T00:56:25.399Z,93
2023-04-15T00:56:57.128Z,93
2023-04-15T00:57:13.747Z,93
2023-04-15T00:57:57.087Z,93
2023-04-15T00:58:29.137Z,93
2023-04-15T00:59:01.572Z,93
2023-04-15T00:59:33.164Z,93
2023-04-15T01:00:06.499Z,93
2023-04-15T01:00:37.171Z,93
2023-04-15T01:01:09.316Z,93
2023-04-15T01:01:40.962Z,93
2023-04-15T01:02:13.063Z,93
2023-04-15T01:02:45.469Z,93
2023-04-15T01:03:16.981Z,93
2023-04-15T01:03:49.021Z,93
2023-04-15T01:04:20.959Z,93
2023-04-15T01:04:52.872Z,93
2023-04-15T01:05:25.333Z,93
2023-04-15T01:05:56.727Z,93
2023-04-15T01:06:12.939Z,93
2023-04-15T01:06:44.807Z,93
2023-04-15T01:07:00.963Z,93
2023-04-15T01:07:32.808Z,93
2023-04-15T01:08:04.963Z,93
2023-04-15T01:08:20.959Z,93
2023-04-15T01:08:52.600Z,93
2023-04-15T01:09:36.696Z,93
2023-04-15T01:10:09.029Z,93
2023-04-15T01:10:40.589Z,93
2023-04-15T01:11:12.756Z,93
2023-04-15T01:11:44.629Z,93
2023-04-15T01:12:16.619Z,93
2023-04-15T01:12:48.562Z,93
2023-04-15T01:13:20.381Z,93
2023-04-15T01:13:52.629Z,93
2023-04-15T01:14:24.615Z,93
2023-04-15T01:14:56.332Z,93
2023-04-15T01:15:13.895Z,93
2023-04-15T01:15:56.381Z,93
2023-04-15T01:16:28.583Z,93
2023-04-15T01:17:00.382Z,93
2023-04-15T01:17:32.355Z,93
2023-04-15T01:18:04.814Z,93
2023-04-15T01:18:36.249Z,93
2023-04-15T01:19:08.104Z,93
2023-04-15T01:19:40.254Z,93
2023-04-15T01:20:12.488Z,93
2023-04-15T01:20:44.332Z,93
2023-04-15T01:21:16.291Z,93
2023-04-15T01:21:48.040Z,93
2023-04-15T01:22:20.009Z,93
2023-04-15T01:22:52.384Z,93
2023-04-15T01:23:24.136Z,93
2023-04-15T01:23:56.005Z,93
2023-04-15T01:24:12.227Z,93
2023-04-15T01:24:44.013Z,93
2023-04-15T01:25:00.146Z,93
2023-04-15T01:25:32.263Z,93
2023-04-15T01:26:04.465Z,93
2023-04-15T01:26:20.102Z,93
2023-04-15T01:26:51.925Z,93
2023-04-15T01:27:36.017Z,93
2023-04-15T01:28:07.845Z,93
2023-04-15T01:28:40.235Z,93
2023-04-15T01:29:11.964Z,94
2023-04-15T01:29:44.024Z,94
2023-04-15T01:30:16.617Z,94
2023-04-15T01:30:47.670Z,94
2023-04-15T01:31:19.744Z,94
2023-04-15T01:31:51.864Z,94
2023-04-15T01:32:23.640Z,94
2023-04-15T01:32:55.972Z,94
2023-04-15T01:33:27.668Z,94
2023-04-15T01:33:59.777Z,94
2023-04-15T01:34:32.571Z,94
2023-04-15T01:35:04.769Z,94
2023-04-15T01:35:35.675Z,94
2023-04-15T01:36:07.619Z,94
2023-04-15T01:36:39.559Z,94
2023-04-15T01:37:11.503Z,93
2023-04-15T01:37:27.609Z,94
2023-04-15T01:38:11.516Z,94
2023-04-15T01:38:43.549Z,93
2023-04-15T01:39:15.435Z,93
2023-04-15T01:39:47.243Z,93
2023-04-15T01:40:19.651Z,93
2023-04-15T01:40:51.436Z,94
2023-04-15T01:41:23.254Z,94
2023-04-15T01:41:55.488Z,94
2023-04-15T01:42:27.309Z,93
2023-04-15T01:42:59.382Z,93
2023-04-15T01:43:31.138Z,93
2023-04-15T01:44:03.672Z,93
2023-04-15T01:44:35.291Z,93
2023-04-15T01:45:08.414Z,93
2023-04-15T01:45:39.357Z,93
2023-04-15T01:46:11.282Z,93
2023-04-15T01:46:43.223Z,94
2023-04-15T01:47:15.315Z,93
2023-04-15T01:47:46.936Z,93
2023-04-15T01:48:18.904Z,94
2023-04-15T01:48:51.013Z,93
2023-04-15T01:49:23.082Z,93
2023-04-15T01:49:54.976Z,93
2023-04-15T01:50:11.481Z,93
2023-04-15T01:50:55.092Z,94
2023-04-15T01:51:27.082Z,94
2023-04-15T01:51:59.340Z,94
2023-04-15T01:52:30.964Z,94
2023-04-15T01:53:03.298Z,94
2023-04-15T01:53:34.951Z,94
2023-04-15T01:54:06.926Z,94
2023-04-15T01:54:38.689Z,94
2023-04-15T01:55:11.240Z,94
2023-04-15T01:55:42.857Z,93
2023-04-15T01:56:16.848Z,94
2023-04-15T01:56:46.696Z,94
2023-04-15T01:57:18.579Z,94
2023-04-15T01:57:50.557Z,94
2023-04-15T01:58:22.781Z,94
2023-04-15T01:58:54.768Z,94
2023-04-15T01:59:26.449Z,94
2023-04-15T01:59:58.557Z,94
2023-04-15T02:00:30.986Z,94
2023-04-15T02:01:02.699Z,94
2023-04-15T02:01:34.565Z,94
2023-04-15T02:02:06.488Z,94
2023-04-15T02:02:38.656Z,94
2023-04-15T02:03:10.590Z,94
2023-04-15T02:03:26.706Z,94
2023-04-15T02:03:58.298Z,94
2023-04-15T02:04:42.465Z,94
2023-04-15T02:05:14.686Z,94
2023-04-15T02:05:46.278Z,94
2023-04-15T02:06:18.199Z,94
2023-04-15T02:06:50.207Z,94
2023-04-15T02:07:22.382Z,94
2023-04-15T02:07:54.335Z,94
2023-04-15T02:08:10.432Z,94
2023-04-15T02:08:54.492Z,94
2023-04-15T02:09:26.268Z,94
2023-04-15T02:09:58.280Z,94
2023-04-15T02:10:30.353Z,94
2023-04-15T02:11:02.317Z,94
2023-04-15T02:11:34.205Z,94
2023-04-15T02:12:06.142Z,94
2023-04-15T02:12:37.944Z,94
2023-04-15T02:13:10.049Z,94
2023-04-15T02:13:42.098Z,94
2023-04-15T02:14:14.181Z,94
2023-04-15T02:14:45.936Z,94
2023-04-15T02:15:18.253Z,94
2023-04-15T02:15:49.886Z,94
2023-04-15T02:16:22.205Z,94
2023-04-15T02:16:53.995Z,94
2023-04-15T02:17:26.075Z,94
2023-04-15T02:17:57.938Z,94
2023-04-15T02:18:29.934Z,94
2023-04-15T02:19:02.185Z,94
2023-04-15T02:19:33.926Z,94
2023-04-15T02:20:06.183Z,94
2023-04-15T02:20:37.827Z,94
2023-04-15T02:21:09.709Z,94
2023-04-15T02:21:26.029Z,94
2023-04-15T02:21:57.535Z,94
2023-04-15T02:22:41.594Z,94
2023-04-15T02:23:13.745Z,94
2023-04-15T02:23:45.763Z,94
2023-04-15T02:24:17.382Z,94
2023-04-15T02:24:49.601Z,94
2023-04-15T02:25:21.858Z,94
2023-04-15T02:25:54.360Z,94
2023-04-15T02:26:09.649Z,94
2023-04-15T02:26:53.347Z,94
2023-04-15T02:27:25.749Z,94
2023-04-15T02:27:57.492Z,94
2023-04-15T02:28:29.500Z,94
2023-04-15T02:29:01.709Z,94
2023-04-15T02:29:33.251Z,94
2023-04-15T02:30:06.907Z,94
2023-04-15T02:30:37.207Z,94
2023-04-15T02:31:09.206Z,93
2023-04-15T02:31:41.377Z,93
2023-04-15T02:32:13.393Z,93
2023-04-15T02:32:45.581Z,94
2023-04-15T02:33:17.263Z,93
2023-04-15T02:33:49.296Z,93
2023-04-15T02:34:21.192Z,94
2023-04-15T02:34:53.027Z,94
2023-04-15T02:35:25.495Z,94
2023-04-15T02:35:56.998Z,94
2023-04-15T02:36:29.293Z,94
2023-04-15T02:37:01.072Z,94
2023-04-15T02:37:32.880Z,94
2023-04-15T02:38:06.645Z,94
2023-04-15T02:38:37.075Z,94
2023-04-15T02:39:08.860Z,94
2023-04-15T02:39:25.184Z,94
2023-04-15T02:39:56.825Z,94
2023-04-15T02:40:41.379Z,94
2023-04-15T02:41:13.032Z,94
2023-04-15T02:41:44.683Z,94
2023-04-15T02:42:16.991Z,94
2023-04-15T02:42:48.982Z,94
2023-04-15T02:43:20.700Z,94
2023-04-15T02:43:52.683Z,94
2023-04-15T02:44:25.048Z,94
2023-04-15T02:44:56.806Z,94
2023-04-15T02:45:29.101Z,94
2023-04-15T02:46:00.785Z,94
2023-04-15T02:46:32.647Z,94
2023-04-15T02:47:05.320Z,94
2023-04-15T02:47:36.492Z,94
2023-04-15T02:48:08.556Z,94
2023-04-15T02:48:40.837Z,94
2023-04-15T02:49:12.519Z,94
2023-04-15T02:49:44.587Z,94
2023-04-15T02:50:16.835Z,94
2023-04-15T02:50:48.401Z,94
2023-04-15T02:51:20.536Z,94
2023-04-15T02:51:52.430Z,94
2023-04-15T02:52:08.491Z,94
2023-04-15T02:52:40.795Z,94
2023-04-15T02:53:24.385Z,94
2023-04-15T02:53:56.389Z,94
2023-04-15T02:54:28.314Z,94
2023-04-15T02:55:00.538Z,94
2023-04-15T02:55:32.308Z,94
2023-04-15T02:56:04.751Z,94
2023-04-15T02:56:36.032Z,94
2023-04-15T02:57:08.241Z,94
2023-04-15T02:57:24.435Z,94
2023-04-15T02:57:56.238Z,94
2023-04-15T02:58:40.340Z,94
2023-04-15T02:59:12.060Z,94
2023-04-15T02:59:44.303Z,94
2023-04-15T03:00:17.477Z,94
2023-04-15T03:00:47.981Z,94
2023-04-15T03:01:20.031Z,94
2023-04-15T03:01:52.177Z,94
2023-04-15T03:02:24.227Z,94
2023-04-15T03:02:56.385Z,95
2023-04-15T03:03:28.058Z,95
2023-04-15T03:03:59.947Z,95
2023-04-15T03:04:32.135Z,94
2023-04-15T03:05:04.998Z,94
2023-04-15T03:05:36.004Z,94
2023-04-15T03:06:07.828Z,94
2023-04-15T03:06:40.039Z,94
2023-04-15T03:07:11.828Z,94
2023-04-15T03:07:43.677Z,94
2023-04-15T03:08:15.924Z,94
2023-04-15T03:08:47.612Z,94
2023-04-15T03:09:20.151Z,94
2023-04-15T03:09:51.660Z,94
2023-04-15T03:10:09.177Z,94
2023-04-15T03:10:39.964Z,94
2023-04-15T03:11:23.685Z,94
2023-04-15T03:11:55.733Z,94
2023-04-15T03:12:27.389Z,94
2023-04-15T03:12:59.540Z,94
2023-04-15T03:13:31.564Z,94
2023-04-15T03:14:03.673Z,94
2023-04-15T03:14:35.448Z,94
2023-04-15T03:15:08.857Z,94
2023-04-15T03:15:39.463Z,94
2023-04-15T03:16:11.585Z,94
2023-04-15T03:16:43.222Z,94
2023-04-15T03:17:15.324Z,94
2023-04-15T03:17:47.292Z,94
2023-04-15T03:18:19.423Z,94
2023-04-15T03:18:51.123Z,94
2023-04-15T03:19:07.339Z,94
2023-04-15T03:19:51.219Z,94
2023-04-15T03:20:23.627Z,94
2023-04-15T03:20:55.428Z,94
2023-04-15T03:21:27.170Z,94
2023-04-15T03:21:59.167Z,94
2023-04-15T03:22:31.180Z,94
2023-04-15T03:23:03.404Z,94
2023-04-15T03:23:35.234Z,94
2023-04-15T03:24:07.022Z,94
2023-04-15T03:24:39.129Z,94
2023-04-15T03:25:11.466Z,94
2023-04-15T03:25:42.890Z,94
2023-04-15T03:26:15.019Z,94
2023-04-15T03:26:46.885Z,94
2023-04-15T03:27:19.129Z,94
2023-04-15T03:27:50.900Z,94
2023-04-15T03:28:07.044Z,94
2023-04-15T03:28:39.104Z,94
2023-04-15T03:28:54.964Z,94
2023-04-15T03:29:26.901Z,94
2023-04-15T03:29:58.766Z,94
2023-04-15T03:30:31.158Z,94
2023-04-15T03:31:03.278Z,94
2023-04-15T03:31:35.044Z,94
2023-04-15T03:32:06.571Z,94
2023-04-15T03:32:22.796Z,94
2023-04-15T03:32:54.927Z,94
2023-04-15T03:33:38.910Z,94
2023-04-15T03:34:10.705Z,94
2023-04-15T03:34:42.403Z,94
2023-04-15T03:35:14.902Z,94
2023-04-15T03:35:46.583Z,94
2023-04-15T03:36:18.529Z,94
2023-04-15T03:36:50.596Z,94
2023-04-15T03:37:06.541Z,94
2023-04-15T03:37:50.614Z,94
2023-04-15T03:38:22.553Z,94
2023-04-15T03:38:54.482Z,94
2023-04-15T03:39:26.490Z,94
2023-04-15T03:39:58.574Z,94
2023-04-15T03:40:30.659Z,94
2023-04-15T03:41:02.973Z,94
2023-04-15T03:41:34.356Z,94
2023-04-15T03:42:06.698Z,94
2023-04-15T03:42:39.342Z,94
2023-04-15T03:43:10.293Z,94
2023-04-15T03:43:42.113Z,94
2023-04-15T03:44:14.484Z,94
2023-04-15T03:44:46.183Z,94
2023-04-15T03:45:18.925Z,94
2023-04-15T03:45:50.124Z,94
2023-04-15T03:46:06.436Z,94
2023-04-15T03:46:38.196Z,94
2023-04-15T03:46:54.276Z,94
2023-04-15T03:47:26.223Z,94
2023-04-15T03:48:30.177Z,94
2023-04-15T03:49:02.792Z,94
2023-04-15T03:49:33.732Z,94
2023-04-15T03:50:06.301Z,94
2023-04-15T03:50:21.950Z,94
2023-04-15T03:50:54.169Z,94
2023-04-15T03:51:37.991Z,94
2023-04-15T03:52:09.872Z,94
2023-04-15T03:52:41.937Z,94
2023-04-15T03:53:14.191Z,94
2023-04-15T03:53:46.044Z,94
2023-04-15T03:54:17.643Z,94
2023-04-15T03:54:49.760Z,94
2023-04-15T03:55:06.462Z,94
2023-04-15T03:55:49.798Z,94
2023-04-15T03:56:21.646Z,94
2023-04-15T03:56:53.714Z,94
2023-04-15T03:57:25.732Z,94
2023-04-15T03:57:57.565Z,94
2023-04-15T03:58:29.871Z,94
2023-04-15T03:59:02.281Z,94
2023-04-15T03:59:33.446Z,94
2023-04-15T04:00:08.962Z,94
2023-04-15T04:00:37.708Z,94
2023-04-15T04:01:09.594Z,94
2023-04-15T04:01:41.570Z,94
2023-04-15T04:02:13.576Z,94
2023-04-15T04:02:45.932Z,94
2023-04-15T04:03:17.776Z,94
2023-04-15T04:03:49.363Z,94
2023-04-15T04:04:05.845Z,94
2023-04-15T04:04:37.316Z,94
2023-04-15T04:04:53.399Z,94
2023-04-15T04:05:25.789Z,94
2023-04-15T04:05:57.237Z,94
2023-04-15T04:06:29.541Z,94
2023-04-15T04:07:01.768Z,94
2023-04-15T04:07:33.321Z,94
2023-04-15T04:08:05.487Z,94
2023-04-15T04:08:21.297Z,94
2023-04-15T04:08:53.147Z,94
2023-04-15T04:09:37.224Z,94
2023-04-15T04:10:10.319Z,94
2023-04-15T04:10:41.217Z,94
2023-04-15T04:11:12.985Z,94
2023-04-15T04:11:45.422Z,94
2023-04-15T04:12:17.140Z,94
2023-04-15T04:12:48.881Z,94
2023-04-15T04:13:05.468Z,94
2023-04-15T04:13:48.930Z,94
2023-04-15T04:14:21.065Z,94
2023-04-15T04:14:53.104Z,94
2023-04-15T04:15:25.330Z,94
2023-04-15T04:15:56.926Z,94
2023-04-15T04:16:29.095Z,94
2023-04-15T04:17:01.234Z,94
2023-04-15T04:17:32.750Z,94
2023-04-15T04:18:05.110Z,94
2023-04-15T04:18:36.775Z,94
2023-04-15T04:19:08.901Z,94
2023-04-15T04:19:40.784Z,94
2023-04-15T04:20:12.870Z,94
2023-04-15T04:20:44.952Z,94
2023-04-15T04:21:16.718Z,94
2023-04-15T04:21:48.507Z,94
2023-04-15T04:22:20.630Z,94
2023-04-15T04:22:52.592Z,94
2023-04-15T04:23:24.777Z,94
2023-04-15T04:23:56.791Z,94
2023-04-15T04:24:28.448Z,94
2023-04-15T04:25:00.981Z,94
2023-04-15T04:25:32.579Z,94
2023-04-15T04:26:04.712Z,94
2023-04-15T04:26:20.563Z,94
2023-04-15T04:26:52.251Z,94
2023-04-15T04:27:37.108Z,94
2023-04-15T04:28:08.413Z,94
2023-04-15T04:28:40.635Z,94
2023-04-15T04:29:12.392Z,94
2023-04-15T04:29:44.589Z,94
2023-04-15T04:30:17.911Z,94
2023-04-15T04:30:48.221Z,94
2023-04-15T04:31:04.796Z,94
2023-04-15T04:31:48.187Z,94
2023-04-15T04:32:20.262Z,94
2023-04-15T04:32:52.222Z,94
2023-04-15T04:33:24.224Z,94
2023-04-15T04:33:56.214Z,94
2023-04-15T04:34:28.070Z,94
2023-04-15T04:35:00.562Z,94
2023-04-15T04:35:31.974Z,94
2023-04-15T04:36:04.436Z,94
2023-04-15T04:36:36.140Z,94
2023-04-15T04:37:08.310Z,94
2023-04-15T04:37:39.969Z,94
2023-04-15T04:38:11.965Z,94
2023-04-15T04:38:44.125Z,94
2023-04-15T04:39:16.338Z,94
2023-04-15T04:39:48.002Z,94
2023-04-15T04:40:04.836Z,94
2023-04-15T04:40:36.027Z,94
2023-04-15T04:40:52.231Z,94
2023-04-15T04:41:24.151Z,94
2023-04-15T04:41:56.047Z,94
2023-04-15T04:42:27.907Z,94
2023-04-15T04:43:00.201Z,94
2023-04-15T04:43:31.967Z,94
2023-04-15T04:44:04.296Z,94
2023-04-15T04:44:19.881Z,94
2023-04-15T04:44:51.711Z,94
2023-04-15T04:45:36.416Z,94
2023-04-15T04:46:07.927Z,94
2023-04-15T04:46:39.917Z,94
2023-04-15T04:47:11.890Z,94
2023-04-15T04:47:43.793Z,94
2023-04-15T04:48:16.105Z,94
2023-04-15T04:48:47.690Z,94
2023-04-15T04:49:04.771Z,94
2023-04-15T04:49:47.666Z,94
2023-04-15T04:50:20.026Z,94
2023-04-15T04:50:51.610Z,94
2023-04-15T04:51:23.836Z,94
2023-04-15T04:51:55.566Z,94
2023-04-15T04:52:27.724Z,94
2023-04-15T04:52:59.633Z,94
2023-04-15T04:53:31.288Z,94
2023-04-15T04:54:04.207Z,94
2023-04-15T04:54:35.719Z,94
2023-04-15T04:55:09.171Z,94
2023-04-15T04:55:39.531Z,94
2023-04-15T04:56:11.462Z,94
2023-04-15T04:56:43.254Z,94
2023-04-15T04:57:15.619Z,94
2023-04-15T04:57:47.228Z,94
2023-04-15T04:58:19.521Z,94
2023-04-15T04:58:51.289Z,94
2023-04-15T04:59:23.419Z,94
2023-04-15T04:59:55.257Z,94
2023-04-15T05:00:27.704Z,94
2023-04-15T05:00:59.359Z,94
2023-04-15T05:01:31.374Z,94
2023-04-15T05:02:03.573Z,94
2023-04-15T05:02:19.244Z,94
2023-04-15T05:02:51.393Z,94
2023-04-15T05:03:35.328Z,94
2023-04-15T05:04:07.256Z,94
2023-04-15T05:04:39.240Z,94
2023-04-15T05:05:11.345Z,94
2023-04-15T05:05:43.050Z,94
2023-04-15T05:06:15.222Z,94
2023-04-15T05:06:46.897Z,94
2023-04-15T05:07:03.602Z,94
2023-04-15T05:07:46.898Z,94
2023-04-15T05:08:18.977Z,94
2023-04-15T05:08:51.107Z,94
2023-04-15T05:09:22.790Z,94
2023-04-15T05:09:55.110Z,94
2023-04-15T05:10:27.352Z,94
2023-04-15T05:10:58.858Z,94
2023-04-15T05:11:30.885Z,94
2023-04-15T05:12:03.321Z,94
2023-04-15T05:12:18.858Z,94
2023-04-15T05:13:03.360Z,94
2023-04-15T05:13:39.880Z,94
2023-04-15T05:14:06.558Z,94
2023-04-15T05:14:38.843Z,94
2023-04-15T05:15:12.436Z,94
2023-04-15T05:15:42.761Z,94
2023-04-15T05:16:14.733Z,94
2023-04-15T05:16:46.507Z,94
2023-04-15T05:17:18.520Z,94
2023-04-15T05:17:50.581Z,94
2023-04-15T05:18:22.364Z,94
2023-04-15T05:18:54.670Z,94
2023-04-15T05:19:26.532Z,94
2023-04-15T05:19:58.510Z,94
2023-04-15T05:20:30.704Z,94
2023-04-15T05:21:02.986Z,94
2023-04-15T05:21:34.557Z,94
2023-04-15T05:22:06.438Z,94
2023-04-15T05:22:38.184Z,94
2023-04-15T05:23:10.464Z,94
2023-04-15T05:23:42.384Z,94
2023-04-15T05:24:14.339Z,94
2023-04-15T05:24:46.338Z,94
2023-04-15T05:25:03.287Z,94
2023-04-15T05:25:46.252Z,94
2023-04-15T05:26:19.132Z,94
2023-04-15T05:26:50.302Z,94
2023-04-15T05:27:22.150Z,94
2023-04-15T05:27:54.264Z,94
2023-04-15T05:28:26.018Z,94
2023-04-15T05:28:58.095Z,94
2023-04-15T05:29:30.179Z,94
2023-04-15T05:30:06.953Z,94
2023-04-15T05:30:34.299Z,94
2023-04-15T05:31:06.046Z,94
2023-04-15T05:31:37.845Z,94
2023-04-15T05:32:10.196Z,94
2023-04-15T05:32:41.996Z,94
2023-04-15T05:33:13.857Z,94
2023-04-15T05:33:46.011Z,94
2023-04-15T05:34:02.671Z,94
2023-04-15T05:34:33.953Z,94
2023-04-15T05:35:18.139Z,94
2023-04-15T05:35:49.733Z,94
2023-04-15T05:36:21.685Z,94
2023-04-15T05:36:53.750Z,94
2023-04-15T05:37:25.913Z,94
2023-04-15T05:37:57.782Z,94
2023-04-15T05:38:29.661Z,94
2023-04-15T05:39:01.916Z,93
2023-04-15T05:39:17.731Z,93
2023-04-15T05:39:49.527Z,93
2023-04-15T05:40:33.964Z,93
2023-04-15T05:41:05.862Z,93
2023-04-15T05:41:37.418Z,93
2023-04-15T05:42:09.758Z,93
2023-04-15T05:42:42.166Z,92
2023-04-15T05:43:13.378Z,92
2023-04-15T05:43:45.607Z,92
2023-04-15T05:44:17.403Z,91
2023-04-15T05:44:49.589Z,90
2023-04-15T05:45:24.719Z,90
2023-04-15T05:45:53.376Z,89
2023-04-15T05:46:25.668Z,88
2023-04-15T05:46:57.371Z,88
2023-04-15T05:47:29.195Z,88
2023-04-15T05:48:01.495Z,87
2023-04-15T05:48:33.270Z,87
2023-04-15T05:49:05.454Z,86
2023-04-15T05:49:37.165Z,86
2023-04-15T05:50:09.664Z,87
2023-04-15T05:50:41.279Z,87
2023-04-15T05:51:13.174Z,87
2023-04-15T05:51:45.254Z,87
2023-04-15T05:52:16.992Z,87
2023-04-15T05:52:33.251Z,87
2023-04-15T05:53:16.949Z,87
2023-04-15T05:53:49.031Z,87
2023-04-15T05:54:20.955Z,87
2023-04-15T05:54:52.801Z,87
2023-04-15T05:55:25.317Z,87
2023-04-15T05:55:56.845Z,87
2023-04-15T05:56:28.798Z,87
2023-04-15T05:57:01.079Z,87
2023-04-15T05:57:32.855Z,86
2023-04-15T05:58:04.951Z,85
2023-04-15T05:58:20.996Z,84
2023-04-15T05:58:53.808Z,83
2023-04-15T05:59:36.845Z,83
2023-04-15T06:00:10.072Z,83
2023-04-15T06:00:40.881Z,82
2023-04-15T06:01:12.695Z,81
2023-04-15T06:01:44.933Z,81
2023-04-15T06:02:16.771Z,80
2023-04-15T06:02:32.824Z,81
2023-04-15T06:03:05.150Z,81
2023-04-15T06:03:48.732Z,80
2023-04-15T06:04:20.889Z,80
2023-04-15T06:04:52.685Z,80
2023-04-15T06:05:24.989Z,81
2023-04-15T06:05:56.470Z,81
2023-04-15T06:06:28.371Z,81
2023-04-15T06:07:00.532Z,81
2023-04-15T06:07:16.669Z,81
2023-04-15T06:08:00.591Z,82
2023-04-15T06:08:32.435Z,82
2023-04-15T06:09:05.010Z,82
2023-04-15T06:09:36.340Z,82
2023-04-15T06:10:08.607Z,82
2023-04-15T06:10:40.465Z,82
2023-04-15T06:11:12.241Z,81
2023-04-15T06:11:44.191Z,81
2023-04-15T06:12:16.456Z,81
2023-04-15T06:12:48.330Z,81
2023-04-15T06:13:20.238Z,81
2023-04-15T06:13:52.235Z,80
2023-04-15T06:14:24.415Z,80
2023-04-15T06:14:56.871Z,80
2023-04-15T06:15:28.650Z,80
2023-04-15T06:16:00.217Z,80
2023-04-15T06:16:32.060Z,80
2023-04-15T06:17:04.545Z,79
2023-04-15T06:17:36.035Z,79
2023-04-15T06:18:08.020Z,79
2023-04-15T06:18:40.217Z,79
2023-04-15T06:19:11.973Z,78
2023-04-15T06:19:44.097Z,78
2023-04-15T06:20:16.219Z,77
2023-04-15T06:20:47.986Z,76
2023-04-15T06:21:19.898Z,76
2023-04-15T06:21:51.807Z,77
2023-04-15T06:22:24.053Z,77
2023-04-15T06:22:55.991Z,78
2023-04-15T06:23:28.101Z,77
2023-04-15T06:23:59.778Z,77
2023-04-15T06:24:31.897Z,77
2023-04-15T06:25:05.105Z,76
2023-04-15T06:25:35.705Z,76
2023-04-15T06:26:07.804Z,76
2023-04-15T06:26:41.871Z,75
2023-04-15T06:27:11.567Z,75
2023-04-15T06:27:43.704Z,75
2023-04-15T06:28:16.068Z,75
2023-04-15T06:28:47.701Z,73
2023-04-15T06:29:19.701Z,74
2023-04-15T06:29:51.774Z,74
2023-04-15T06:30:24.597Z,74
2023-04-15T06:30:55.863Z,74
2023-04-15T06:31:27.783Z,73
2023-04-15T06:31:59.654Z,74
2023-04-15T06:32:31.814Z,74
2023-04-15T06:33:04.241Z,74
2023-04-15T06:33:19.765Z,74
2023-04-15T06:33:51.357Z,73
2023-04-15T06:34:35.640Z,74
2023-04-15T06:35:07.885Z,73
2023-04-15T06:35:39.631Z,72
2023-04-15T06:36:11.429Z,72
2023-04-15T06:36:43.245Z,72
2023-04-15T06:37:15.330Z,73
2023-04-15T06:37:47.190Z,73
2023-04-15T06:38:19.200Z,72
2023-04-15T06:38:51.611Z,73
2023-04-15T06:39:23.169Z,73
2023-04-15T06:39:55.336Z,73
2023-04-15T06:40:27.458Z,73
2023-04-15T06:40:59.228Z,73
2023-04-15T06:41:31.604Z,73
2023-04-15T06:42:03.476Z,74
2023-04-15T06:42:35.216Z,74
2023-04-15T06:43:06.969Z,73
2023-04-15T06:43:39.219Z,74
2023-04-15T06:44:11.223Z,75
2023-04-15T06:44:42.938Z,75
2023-04-15T06:45:16.602Z,75
2023-04-15T06:45:47.162Z,75
2023-04-15T06:46:18.794Z,76
2023-04-15T06:46:50.749Z,76
2023-04-15T06:47:22.924Z,75
2023-04-15T06:47:55.200Z,76
2023-04-15T06:48:26.719Z,76
2023-04-15T06:48:58.768Z,76
2023-04-15T06:49:30.863Z,75
2023-04-15T06:50:05.416Z,75
2023-04-15T06:50:35.226Z,75
2023-04-15T06:51:06.781Z,75
2023-04-15T06:51:39.036Z,75
2023-04-15T06:52:10.974Z,75
2023-04-15T06:52:42.817Z,75
2023-04-15T06:53:14.760Z,76
2023-04-15T06:53:46.758Z,74
2023-04-15T06:54:18.648Z,75
2023-04-15T06:54:50.387Z,75
2023-04-15T06:55:22.648Z,75
2023-04-15T06:55:54.776Z,75
2023-04-15T06:56:26.662Z,75
2023-04-15T06:56:58.389Z,74
2023-04-15T06:57:14.687Z,75
2023-04-15T06:57:58.357Z,74
2023-04-15T06:58:30.452Z,75
2023-04-15T06:59:02.794Z,75
2023-04-15T06:59:34.310Z,75
2023-04-15T07:00:09.004Z,76
2023-04-15T07:00:38.202Z,76
2023-04-15T07:01:10.501Z,77
2023-04-15T07:01:42.408Z,76
2023-04-15T07:01:58.618Z,76
2023-04-15T07:02:30.268Z,77
2023-04-15T07:02:46.362Z,76
2023-04-15T07:03:18.456Z,75
2023-04-15T07:03:50.079Z,76
2023-04-15T07:04:24.673Z,77
2023-04-15T07:04:54.532Z,77
2023-04-15T07:05:26.915Z,77
2023-04-15T07:05:58.787Z,76
2023-04-15T07:06:14.350Z,76
2023-04-15T07:06:45.941Z,75
2023-04-15T07:07:30.281Z,76
2023-04-15T07:08:02.837Z,75
2023-04-15T07:08:33.994Z,75
2023-04-15T07:09:06.263Z,75
2023-04-15T07:09:38.218Z,75
2023-04-15T07:10:10.828Z,76
2023-04-15T07:10:42.160Z,76
2023-04-15T07:10:58.373Z,75
2023-04-15T07:11:41.675Z,75
2023-04-15T07:12:14.104Z,75
2023-04-15T07:12:45.806Z,74
2023-04-15T07:13:17.775Z,74
2023-04-15T07:13:49.950Z,74
2023-04-15T07:14:21.811Z,74
2023-04-15T07:14:53.825Z,74
2023-04-15T07:15:26.935Z,74
2023-04-15T07:15:57.977Z,73
2023-04-15T07:16:30.027Z,73
2023-04-15T07:16:45.958Z,72
2023-04-15T07:17:17.702Z,71
2023-04-15T07:18:02.231Z,71
2023-04-15T07:18:33.604Z,71
2023-04-15T07:19:06.213Z,73
2023-04-15T07:19:37.734Z,73
2023-04-15T07:20:10.130Z,73
2023-04-15T07:20:41.847Z,73
2023-04-15T07:21:13.687Z,72
2023-04-15T07:21:29.774Z,72
2023-04-15T07:22:13.550Z,70
2023-04-15T07:22:45.640Z,69
2023-04-15T07:23:17.597Z,71
2023-04-15T07:23:49.687Z,70
2023-04-15T07:24:21.431Z,69
2023-04-15T07:24:53.571Z,70
2023-04-15T07:25:25.769Z,70
2023-04-15T07:25:57.531Z,70
2023-04-15T07:26:29.438Z,70
2023-04-15T07:27:01.667Z,70
2023-04-15T07:27:33.069Z,70
2023-04-15T07:28:07.461Z,70
2023-04-15T07:28:37.276Z,70
2023-04-15T07:29:09.116Z,71